Time;durP1;ratioP1;P1;durP2;ratioP2;P2;SDS_P1;SDS_P2;PMS_P1;PMS_P2;Temp;Humidity;BMP_temperature;BMP_pressure;BME280_temperature;BME280_humidity;BME280_pressure;Samples;Min_cycle;Max_cycle;Signal;HPM_P1;HPM_P2
2024/04/10 00:00:59;;;;;;;6.07;1.65;;;14.40;99.90;;;;;;5381309;26;20346;-77
2024/04/10 00:03:25;;;;;;;6.25;2.20;;;14.60;99.90;;;;;;5381106;26;20404;-79
2024/04/10 00:06:20;;;;;;;5.82;2.22;;;14.90;99.90;;;;;;5382475;26;20003;-77
2024/04/10 00:08:46;;;;;;;8.07;3.30;;;15.20;99.90;;;;;;5396669;26;20443;-78
2024/04/10 00:11:12;;;;;;;6.28;2.15;;;15.40;99.90;;;;;;5398673;26;20003;-78
2024/04/10 00:13:37;;;;;;;4.40;1.70;;;15.50;99.90;;;;;;5398415;26;19980;-78
2024/04/10 00:16:07;;;;;;;4.95;1.73;;;15.50;99.90;;;;;;5394402;26;19988;-78
2024/04/10 00:18:35;;;;;;;6.75;2.30;;;15.50;99.90;;;;;;5391496;26;20330;-78
2024/04/10 00:21:01;;;;;;;11.13;1.98;;;15.50;99.90;;;;;;5383692;26;20069;-78
2024/04/10 00:23:27;;;;;;;6.25;2.25;;;15.40;99.90;;;;;;5382515;26;19992;-79
2024/04/10 00:25:58;;;;;;;7.72;1.85;;;15.40;99.90;;;;;;5381904;26;19992;-77
2024/04/10 00:28:24;;;;;;;7.07;1.83;;;15.30;99.90;;;;;;5381434;26;20619;-77
2024/04/10 00:30:50;;;;;;;8.02;2.65;;;15.40;99.90;;;;;;5379746;26;20045;-77
2024/04/10 00:33:18;;;;;;;6.18;1.98;;;15.30;99.90;;;;;;5378397;26;20047;-78
2024/04/10 00:35:57;;;;;;;4.03;2.22;;;15.20;99.90;;;;;;5381733;26;19996;-78
2024/04/10 00:38:23;;;;;;;7.93;1.95;;;15.10;99.90;;;;;;5378008;26;20338;-78
2024/04/10 00:41:01;;;;;;;4.28;1.58;;;15.10;99.90;;;;;;5379347;26;20007;-77
2024/04/10 00:43:28;;;;;;;8.45;1.60;;;14.90;99.90;;;;;;5380523;26;19992;-77
2024/04/10 00:46:21;;;;;;;3.60;2.50;;;14.70;99.90;;;;;;5373708;26;20004;-77
2024/04/10 00:48:48;;;;;;;5.65;2.22;;;14.70;99.90;;;;;;5392527;26;19996;-77
2024/04/10 00:51:18;;;;;;;3.20;1.98;;;14.60;99.90;;;;;;5380305;26;20004;-77
2024/04/10 00:53:45;;;;;;;6.47;2.03;;;14.50;99.90;;;;;;5380548;26;20000;-77
2024/04/10 00:56:12;;;;;;;3.85;1.70;;;14.50;99.90;;;;;;5378940;26;20450;-77
2024/04/10 00:58:38;;;;;;;8.18;2.50;;;14.30;99.90;;;;;;5379183;26;20024;-77
2024/04/10 01:01:04;;;;;;;6.97;1.38;;;14.30;99.90;;;;;;5380641;26;20007;-77
2024/04/10 01:03:31;;;;;;;6.47;1.55;;;14.20;99.90;;;;;;5380117;26;20334;-77
2024/04/10 01:06:01;;;;;;;9.13;2.65;;;14.10;99.90;;;;;;5378749;26;20012;-76
2024/04/10 01:08:33;;;;;;;6.82;1.77;;;14.00;99.90;;;;;;5380530;26;20000;-77
2024/04/10 01:10:59;;;;;;;1.77;1.50;;;14.00;99.90;;;;;;5380263;26;20000;-76
2024/04/10 01:13:26;;;;;;;6.85;3.28;;;13.90;99.90;;;;;;5379946;26;20007;-77
2024/04/10 01:15:51;;;;;;;4.57;2.03;;;13.90;99.90;;;;;;5380496;26;20474;-76
2024/04/10 01:18:17;;;;;;;4.45;1.83;;;13.90;99.90;;;;;;5379327;26;20010;-77
2024/04/10 01:20:43;;;;;;;3.03;2.05;;;13.90;99.90;;;;;;5377750;26;20065;-77
2024/04/10 01:23:09;;;;;;;4.53;1.52;;;13.90;99.90;;;;;;5379766;26;20007;-77
2024/04/10 01:25:35;;;;;;;4.55;1.92;;;13.80;99.90;;;;;;5380362;26;19996;-77
2024/04/10 01:28:00;;;;;;;3.13;1.40;;;13.90;99.90;;;;;;5380570;26;20004;-78
2024/04/10 01:30:26;;;;;;;5.18;1.70;;;13.80;99.90;;;;;;5378461;26;19996;-77
2024/04/10 01:32:52;;;;;;;6.05;1.67;;;13.80;99.90;;;;;;5380421;26;20004;-77
2024/04/10 01:35:17;;;;;;;6.00;3.00;;;13.80;99.90;;;;;;5378660;26;20000;-77
2024/04/10 01:37:43;;;;;;;7.30;3.50;;;13.70;99.90;;;;;;5380271;26;20442;-77
2024/04/10 01:40:09;;;;;;;5.10;2.40;;;13.70;99.90;;;;;;5379930;26;20000;-77
2024/04/10 01:42:35;;;;;;;14.38;1.80;;;13.70;99.90;;;;;;5378449;26;20655;-77
2024/04/10 01:45:03;;;;;;;8.00;1.85;;;13.70;99.90;;;;;;5377666;26;20073;-77
2024/04/10 01:47:28;;;;;;;10.88;2.47;;;13.70;99.90;;;;;;5380061;26;20000;-77
2024/04/10 01:49:54;;;;;;;6.65;1.88;;;13.70;99.90;;;;;;5379558;26;20000;-76
2024/04/10 01:52:19;;;;;;;8.52;2.83;;;13.70;99.90;;;;;;5379939;26;20006;-77
2024/04/10 01:54:46;;;;;;;7.88;1.92;;;13.70;99.90;;;;;;5377255;26;20011;-77
2024/04/10 01:57:12;;;;;;;11.35;1.98;;;13.70;99.90;;;;;;5378321;26;20000;-77
2024/04/10 01:59:38;;;;;;;13.13;2.72;;;13.70;99.90;;;;;;5378665;26;20007;-77
2024/04/10 02:02:03;;;;;;;6.57;2.30;;;13.80;99.90;;;;;;5385228;21;20011;-77
2024/04/10 02:04:29;;;;;;;7.88;1.90;;;13.80;99.90;;;;;;5344439;26;20001;-77
2024/04/10 02:06:55;;;;;;;3.15;1.85;;;13.80;99.90;;;;;;5365841;26;20012;-76
2024/04/10 02:09:21;;;;;;;2.58;1.70;;;13.80;99.90;;;;;;5365107;26;20000;-76
2024/04/10 02:11:47;;;;;;;3.63;1.60;;;13.80;99.90;;;;;;5379476;26;20012;-77
2024/04/10 02:14:12;;;;;;;7.55;2.17;;;13.80;99.90;;;;;;5369671;26;20099;-77
2024/04/10 02:16:40;;;;;;;7.20;2.97;;;13.80;99.90;;;;;;5364352;26;20004;-77
2024/04/10 02:19:06;;;;;;;5.10;1.85;;;13.80;99.90;;;;;;5377758;26;20450;-76
2024/04/10 02:21:32;;;;;;;4.85;1.85;;;13.70;99.90;;;;;;5362016;26;20004;-77
2024/04/10 02:23:57;;;;;;;12.10;1.98;;;13.60;99.90;;;;;;5378718;26;20070;-77
2024/04/10 02:26:23;;;;;;;3.95;2.00;;;13.50;99.90;;;;;;5379449;26;20011;-77
2024/04/10 02:28:49;;;;;;;9.90;2.00;;;13.40;99.90;;;;;;5377395;26;20000;-77
2024/04/10 02:31:15;;;;;;;4.32;2.42;;;13.30;99.90;;;;;;5376649;26;20007;-78
2024/04/10 02:33:40;;;;;;;4.80;1.92;;;13.30;99.90;;;;;;5378459;26;20449;-76
2024/04/10 02:36:08;;;;;;;8.93;1.95;;;13.40;99.90;;;;;;5377124;26;20073;-77
2024/04/10 02:38:35;;;;;;;3.05;1.42;;;13.30;99.90;;;;;;5376993;26;20016;-78
2024/04/10 02:41:01;;;;;;;7.85;2.03;;;13.20;99.90;;;;;;5377264;26;20459;-76
2024/04/10 02:43:27;;;;;;;6.85;2.15;;;13.10;99.90;;;;;;5377366;26;19992;-77
2024/04/10 02:45:57;;;;;;;6.30;2.85;;;13.00;99.90;;;;;;5380766;26;20011;-77
2024/04/10 02:48:23;;;;;;;5.57;2.17;;;12.90;99.90;;;;;;5382231;26;20000;-77
2024/04/10 02:50:49;;;;;;;4.80;1.73;;;12.80;99.90;;;;;;5381817;26;19997;-77
2024/04/10 02:53:15;;;;;;;6.65;2.08;;;12.70;99.90;;;;;;5381337;26;20011;-77
2024/04/10 02:55:42;;;;;;;5.70;1.70;;;12.70;99.90;;;;;;5382257;26;19993;-78
2024/04/10 02:58:08;;;;;;;3.78;1.55;;;12.60;99.90;;;;;;5382605;26;20008;-78
2024/04/10 03:00:42;;;;;;;7.05;1.63;;;12.80;99.90;;;;;;5379886;26;20000;-77
2024/04/10 03:03:08;;;;;;;6.90;2.22;;;12.80;99.90;;;;;;5379786;26;20009;-77
2024/04/10 03:05:33;;;;;;;4.85;2.03;;;12.80;99.90;;;;;;5382725;26;20000;-77
2024/04/10 03:07:59;;;;;;;7.10;2.20;;;12.60;99.90;;;;;;5382030;26;19997;-77
2024/04/10 03:10:25;;;;;;;6.30;1.80;;;12.60;99.90;;;;;;5381986;26;20405;-77
2024/04/10 03:12:50;;;;;;;4.53;2.13;;;12.40;99.90;;;;;;5381625;26;20024;-77
2024/04/10 03:15:16;;;;;;;3.50;2.50;;;12.40;99.90;;;;;;5378695;26;19996;-77
2024/04/10 03:17:42;;;;;;;6.03;1.83;;;12.40;99.90;;;;;;5361835;26;20079;-77
2024/04/10 03:20:08;;;;;;;9.93;2.97;;;12.50;99.90;;;;;;5347654;26;20099;-77
2024/04/10 03:22:34;;;;;;;5.47;1.30;;;12.40;99.90;;;;;;5344426;26;20353;-77
2024/04/10 03:25:00;;;;;;;5.72;1.50;;;12.40;99.90;;;;;;5344642;26;20001;-77
2024/04/10 03:27:25;;;;;;;5.90;1.65;;;12.30;99.90;;;;;;5347363;26;19997;-77
2024/04/10 03:29:51;;;;;;;4.57;2.22;;;12.30;99.90;;;;;;5347249;26;20375;-78
2024/04/10 03:32:17;;;;;;;3.78;2.63;;;12.30;99.90;;;;;;5347909;26;20008;-77
2024/04/10 03:34:42;;;;;;;6.38;2.45;;;12.30;99.90;;;;;;5346735;26;20001;-77
2024/04/10 03:37:08;;;;;;;7.75;2.22;;;12.20;99.90;;;;;;5346111;26;20029;-76
2024/04/10 03:39:34;;;;;;;4.40;2.10;;;12.20;99.90;;;;;;5345192;26;19997;-76
2024/04/10 03:41:59;;;;;;;6.32;1.92;;;12.20;99.90;;;;;;5346980;26;20007;-77
2024/04/10 03:44:25;;;;;;;5.15;2.13;;;12.20;99.90;;;;;;5346004;26;20467;-76
2024/04/10 03:46:51;;;;;;;9.20;2.20;;;12.10;99.90;;;;;;5346656;26;20071;-77
2024/04/10 03:49:17;;;;;;;8.57;2.80;;;12.00;99.90;;;;;;5344969;26;19997;-76
2024/04/10 03:51:42;;;;;;;3.85;1.67;;;12.00;99.90;;;;;;5346905;26;19993;-77
2024/04/10 03:54:08;;;;;;;1.95;1.73;;;12.10;99.90;;;;;;5342646;26;20416;-76
2024/04/10 03:56:33;;;;;;;4.68;1.77;;;11.90;99.90;;;;;;5344139;26;19997;-77
2024/04/10 03:58:59;;;;;;;1.17;0.82;;;11.90;99.90;;;;;;5346669;26;19997;-77
2024/04/10 04:01:25;;;;;;;1.88;0.82;;;12.00;99.90;;;;;;5346063;26;20426;-77
2024/04/10 04:03:50;;;;;;;1.15;0.65;;;12.20;99.90;;;;;;5343547;26;19997;-77
2024/04/10 04:06:16;;;;;;;0.80;0.70;;;12.30;99.90;;;;;;5346114;26;20015;-77
2024/04/10 04:08:41;;;;;;;0.50;0.50;;;12.50;99.80;;;;;;5345598;26;20007;-77
2024/04/10 04:11:07;;;;;;;1.45;0.55;;;12.70;98.10;;;;;;5345850;26;20000;-76
2024/04/10 04:13:33;;;;;;;1.25;0.40;;;12.90;96.00;;;;;;5345374;26;20011;-78
2024/04/10 04:15:58;;;;;;;2.45;1.23;;;13.00;94.60;;;;;;5345699;26;19997;-77
2024/04/10 04:18:24;;;;;;;4.50;1.00;;;13.10;93.70;;;;;;5343929;26;20000;-77
2024/04/10 04:20:50;;;;;;;2.33;1.50;;;13.20;93.50;;;;;;5345565;26;19997;-77
2024/04/10 04:23:16;;;;;;;3.67;0.70;;;13.20;93.50;;;;;;5344464;26;20003;-78
2024/04/10 04:25:42;;;;;;;2.00;0.77;;;13.20;92.90;;;;;;5346014;26;20001;-77
2024/04/10 04:28:08;;;;;;;0.75;0.70;;;13.30;91.80;;;;;;5345785;26;20004;-77
2024/04/10 04:30:33;;;;;;;1.70;0.43;;;13.30;91.10;;;;;;5345351;26;20075;-77
2024/04/10 04:32:59;;;;;;;1.08;0.70;;;13.40;90.40;;;;;;5344606;26;20025;-77
2024/04/10 04:35:25;;;;;;;2.53;0.70;;;13.40;89.20;;;;;;5343751;26;20425;-78
2024/04/10 04:37:56;;;;;;;1.05;0.43;;;13.50;87.20;;;;;;5344822;26;20073;-77
2024/04/10 04:40:22;;;;;;;1.15;1.05;;;13.50;86.60;;;;;;5345545;26;20011;-77
2024/04/10 04:42:48;;;;;;;3.80;0.85;;;13.50;86.50;;;;;;5345547;26;20494;-77
2024/04/10 04:45:14;;;;;;;2.25;0.50;;;13.50;86.70;;;;;;5344729;26;20012;-77
2024/04/10 04:47:39;;;;;;;3.03;0.60;;;13.50;85.40;;;;;;5345395;26;20008;-77
2024/04/10 04:50:08;;;;;;;8.60;0.70;;;13.60;85.70;;;;;;5345316;26;20336;-77
2024/04/10 04:52:34;;;;;;;6.25;0.63;;;13.60;84.60;;;;;;5343502;26;20012;-77
2024/04/10 04:55:00;;;;;;;3.13;0.52;;;13.60;84.60;;;;;;5344687;26;20339;-77
2024/04/10 04:57:25;;;;;;;4.03;0.70;;;13.50;85.10;;;;;;5343856;26;20339;-77
2024/04/10 04:59:51;;;;;;;1.80;0.52;;;13.50;85.00;;;;;;5343786;26;20446;-78
2024/04/10 05:02:17;;;;;;;0.80;0.55;;;13.50;85.90;;;;;;5345656;26;20011;-78
2024/04/10 05:04:58;;;;;;;5.05;0.50;;;13.50;85.90;;;;;;5344856;26;19996;-77
2024/04/10 05:07:24;;;;;;;0.85;0.70;;;13.50;84.60;;;;;;5345450;26;20029;-77
2024/04/10 05:09:50;;;;;;;3.28;0.52;;;13.50;82.40;;;;;;5343277;26;20492;-77
2024/04/10 05:12:16;;;;;;;1.13;0.65;;;13.60;82.20;;;;;;5345132;26;20001;-77
2024/04/10 05:14:48;;;;;;;1.85;0.60;;;13.60;81.80;;;;;;5339566;26;20180;-79
2024/04/10 05:17:13;;;;;;;3.30;0.73;;;13.60;79.20;;;;;;5345197;26;20145;-77
2024/04/10 05:19:39;;;;;;;9.27;2.38;;;14.20;96.80;;;;;;5346471;26;20525;-78
2024/04/10 05:22:05;;;;;;;2.83;0.50;;;14.30;79.30;;;;;;5358126;26;19992;-77
2024/04/10 05:24:30;;;;;;;1.23;0.57;;;14.70;82.60;;;;;;5334568;26;19997;-76
2024/04/10 05:26:56;;;;;;;5.47;2.60;;;14.70;78.50;;;;;;5345764;26;20005;-77
2024/04/10 05:29:22;;;;;;;0.55;0.40;;;15.00;76.30;;;;;;5358774;26;20001;-76
2024/04/10 05:31:48;;;;;;;0.95;0.68;;;15.30;75.10;;;;;;5358353;26;20069;-76
2024/04/10 05:34:15;;;;;;;1.17;0.45;;;15.40;76.40;;;;;;5344890;26;20378;-77
2024/04/10 05:36:41;;;;;;;1.75;0.35;;;15.50;73.80;;;;;;5345545;26;20007;-76
2024/04/10 05:39:07;;;;;;;3.78;0.52;;;15.20;70.50;;;;;;5343245;26;20000;-77
2024/04/10 05:41:32;;;;;;;2.25;0.50;;;15.00;72.10;;;;;;5345078;26;19993;-76
2024/04/10 05:43:58;;;;;;;0.55;0.45;;;15.00;71.40;;;;;;5343063;26;20000;-77
2024/04/10 05:46:26;;;;;;;0.32;0.20;;;15.00;71.20;;;;;;5343746;26;19989;-77
2024/04/10 05:48:52;;;;;;;0.57;0.32;;;15.00;68.20;;;;;;5345536;26;20007;-76
2024/04/10 05:51:17;;;;;;;0.28;0.28;;;15.00;68.30;;;;;;5345651;26;19993;-76
2024/04/10 05:53:43;;;;;;;1.20;0.32;;;14.80;65.90;;;;;;5345008;26;20475;-77
2024/04/10 05:56:09;;;;;;;0.52;0.52;;;14.50;66.40;;;;;;5345170;26;20008;-76
2024/04/10 05:58:35;;;;;;;2.65;0.38;;;14.70;65.80;;;;;;5343224;26;20061;-77
2024/04/10 06:01:09;;;;;;;0.60;0.40;;;14.70;67.90;;;;;;5342965;26;19997;-77
2024/04/10 06:03:35;;;;;;;1.75;0.38;;;14.60;64.30;;;;;;5342322;26;20008;-76
2024/04/10 06:06:12;;;;;;;0.47;0.30;;;14.50;65.60;;;;;;5342826;26;20013;-76
2024/04/10 06:08:37;;;;;;;2.90;0.30;;;14.40;67.60;;;;;;5342774;26;20029;-77
2024/04/10 06:11:03;;;;;;;0.98;0.20;;;14.50;65.10;;;;;;5344489;26;20070;-77
2024/04/10 06:13:29;;;;;;;1.42;0.50;;;14.40;65.20;;;;;;5341955;26;20008;-76
2024/04/10 06:16:02;;;;;;;2.22;0.60;;;14.40;65.10;;;;;;5344707;26;19993;-77
2024/04/10 06:18:28;;;;;;;0.60;0.40;;;14.50;66.80;;;;;;5342803;26;19997;-76
2024/04/10 06:21:01;;;;;;;0.75;0.30;;;14.60;63.70;;;;;;5344369;26;20001;-78
2024/04/10 06:23:28;;;;;;;0.30;0.22;;;14.40;63.10;;;;;;5346835;26;19997;-77
2024/04/10 06:25:55;;;;;;;0.35;0.28;;;14.60;64.10;;;;;;5345851;26;19997;-77
2024/04/10 06:28:20;;;;;;;0.68;0.30;;;14.50;64.50;;;;;;5345460;26;20001;-77
2024/04/10 06:30:46;;;;;;;0.40;0.22;;;14.70;62.90;;;;;;5347589;26;20410;-76
2024/04/10 06:33:14;;;;;;;1.00;0.38;;;14.70;62.90;;;;;;5344440;26;20082;-77
2024/04/10 06:35:40;;;;;;;0.40;0.25;;;14.90;62.80;;;;;;5366913;26;20007;-77
2024/04/10 06:38:06;;;;;;;0.40;0.40;;;15.00;62.60;;;;;;5367548;26;20430;-77
2024/04/10 06:40:32;;;;;;;0.13;0.10;;;14.90;60.10;;;;;;5377519;26;19996;-78
2024/04/10 06:42:58;;;;;;;3.60;0.30;;;14.90;60.00;;;;;;5382292;26;20602;-77
2024/04/10 06:45:24;;;;;;;2.63;0.20;;;14.80;59.90;;;;;;5353482;26;20008;-77
2024/04/10 06:47:49;;;;;;;1.17;0.30;;;14.80;61.30;;;;;;5383015;26;20004;-77
2024/04/10 06:50:15;;;;;;;4.13;0.73;;;14.80;60.70;;;;;;5382600;26;19996;-78
2024/04/10 06:52:40;;;;;;;7.93;0.88;;;14.80;61.10;;;;;;5381301;26;20456;-77
2024/04/10 06:55:06;;;;;;;1.17;0.30;;;14.90;61.40;;;;;;5381901;26;20004;-76
2024/04/10 06:57:32;;;;;;;5.78;0.30;;;15.10;61.70;;;;;;5382831;26;20004;-76
2024/04/10 07:00:02;;;;;;;5.47;0.35;;;15.20;62.70;;;;;;5373940;26;20062;-77
2024/04/10 07:02:28;;;;;;;2.53;1.58;;;15.40;62.40;;;;;;5336392;26;20008;-77
2024/04/10 07:04:54;;;;;;;2.03;0.70;;;15.40;59.60;;;;;;5366924;26;20074;-77
2024/04/10 07:07:20;;;;;;;1.67;0.88;;;15.50;62.40;;;;;;5365938;26;20000;-77
2024/04/10 07:09:46;;;;;;;4.18;1.73;;;15.50;60.10;;;;;;5380527;26;20454;-77
2024/04/10 07:12:12;;;;;;;9.25;3.38;;;15.50;58.30;;;;;;5377836;26;20504;-77
2024/04/10 07:14:40;;;;;;;13.07;3.88;;;15.50;56.90;;;;;;5347977;26;20011;-77
2024/04/10 07:17:05;;;;;;;11.90;4.85;;;15.50;57.40;;;;;;5364638;26;20004;-78
2024/04/10 07:19:37;;;;;;;7.88;4.50;;;15.50;56.60;;;;;;5360844;26;20447;-79
2024/04/10 07:22:06;;;;;;;12.48;4.47;;;15.80;57.70;;;;;;5350215;26;19993;-76
2024/04/10 07:24:32;;;;;;;10.48;4.47;;;16.00;59.80;;;;;;5374966;26;20069;-77
2024/04/10 07:26:57;;;;;;;7.72;3.83;;;16.00;57.30;;;;;;5353335;26;20009;-77
2024/04/10 07:29:23;;;;;;;15.73;7.25;;;15.80;55.10;;;;;;5374791;26;21085;-76
2024/04/10 07:31:48;;;;;;;15.00;7.13;;;15.60;54.90;;;;;;5378760;26;20015;-76
2024/04/10 07:34:14;;;;;;;10.43;4.18;;;15.70;56.00;;;;;;5379270;26;20011;-77
2024/04/10 07:36:46;;;;;;;6.38;3.25;;;15.80;56.00;;;;;;5379938;26;19996;-76
2024/04/10 07:39:12;;;;;;;7.05;3.35;;;15.90;56.20;;;;;;5381950;26;20007;-77
2024/04/10 07:41:37;;;;;;;4.80;2.17;;;16.00;54.60;;;;;;5381881;26;19993;-78
2024/04/10 07:44:05;;;;;;;2.45;1.60;;;16.00;54.50;;;;;;5379168;26;20007;-76
2024/04/10 07:46:31;;;;;;;1.52;0.98;;;16.00;54.50;;;;;;5381474;26;20008;-76
2024/04/10 07:49:00;;;;;;;2.20;1.30;;;16.00;54.10;;;;;;5380090;26;20082;-76
2024/04/10 07:51:27;;;;;;;0.80;0.60;;;16.20;55.10;;;;;;5381504;26;20012;-76
2024/04/10 07:53:54;;;;;;;1.38;0.68;;;16.20;54.40;;;;;;5378956;26;19992;-77
2024/04/10 07:56:20;;;;;;;0.80;0.22;;;16.20;54.40;;;;;;5381498;26;19996;-76
2024/04/10 07:58:46;;;;;;;0.20;0.20;;;16.00;53.60;;;;;;5381769;26;20087;-77
2024/04/10 08:01:12;;;;;;;0.75;0.47;;;16.20;54.20;;;;;;5402347;21;20342;-76
2024/04/10 08:03:38;;;;;;;0.68;0.30;;;16.30;54.30;;;;;;5380829;26;20003;-75
2024/04/10 08:06:05;;;;;;;1.58;0.63;;;16.50;54.40;;;;;;5381282;26;19992;-77
2024/04/10 08:08:32;;;;;;;0.43;0.20;;;16.70;53.50;;;;;;5383197;26;20077;-77
2024/04/10 08:11:03;;;;;;;0.30;0.30;;;16.80;53.40;;;;;;5382494;26;19999;-77
2024/04/10 08:13:29;;;;;;;0.40;0.40;;;16.90;51.60;;;;;;5382514;26;19996;-77
2024/04/10 08:16:00;;;;;;;3.28;0.80;;;16.90;51.70;;;;;;5383430;26;20007;-77
2024/04/10 08:18:29;;;;;;;0.57;0.30;;;17.00;51.50;;;;;;5381353;26;19996;-77
2024/04/10 08:21:03;;;;;;;0.20;0.20;;;16.90;51.50;;;;;;5381389;26;19996;-77
2024/04/10 08:23:30;;;;;;;1.92;0.70;;;16.90;51.50;;;;;;5382038;26;19996;-77
2024/04/10 08:25:57;;;;;;;1.20;0.20;;;16.80;49.50;;;;;;5381499;26;19992;-77
2024/04/10 08:28:25;;;;;;;0.73;0.40;;;16.90;49.90;;;;;;5380745;26;19997;-76
2024/04/10 08:30:51;;;;;;;1.85;0.50;;;17.20;50.50;;;;;;5382180;26;19992;-77
2024/04/10 08:33:17;;;;;;;1.08;0.30;;;17.30;49.20;;;;;;5380805;26;19992;-77
2024/04/10 08:35:42;;;;;;;1.73;0.15;;;17.30;48.80;;;;;;5379782;26;20040;-77
2024/04/10 08:38:08;;;;;;;0.35;0.35;;;17.30;48.90;;;;;;5381227;26;20458;-76
2024/04/10 08:40:38;;;;;;;0.17;0.05;;;17.30;49.00;;;;;;5379857;26;19996;-76
2024/04/10 08:43:06;;;;;;;0.68;0.32;;;17.00;47.60;;;;;;5379041;26;19996;-77
2024/04/10 08:45:32;;;;;;;1.38;0.55;;;17.00;47.60;;;;;;5381831;26;20000;-76
2024/04/10 08:48:00;;;;;;;2.92;1.27;;;17.00;47.30;;;;;;5381803;26;20000;-76
2024/04/10 08:50:27;;;;;;;3.40;1.25;;;16.90;47.60;;;;;;5379535;26;19996;-76
2024/04/10 08:52:56;;;;;;;4.70;1.40;;;16.90;47.90;;;;;;5383080;26;20012;-76
2024/04/10 08:55:22;;;;;;;3.38;1.13;;;16.80;48.00;;;;;;5385812;26;20040;-77
2024/04/10 08:57:48;;;;;;;1.05;0.43;;;16.90;48.30;;;;;;5381888;26;19996;-76
2024/04/10 09:00:14;;;;;;;6.40;2.03;;;17.00;48.30;;;;;;5381249;26;20002;-76
2024/04/10 09:02:39;;;;;;;2.30;0.85;;;17.10;48.40;;;;;;5379867;26;20011;-77
2024/04/10 09:05:06;;;;;;;6.22;1.05;;;17.10;47.00;;;;;;5380843;26;20003;-76
2024/04/10 09:07:32;;;;;;;0.50;0.50;;;17.10;48.10;;;;;;5381733;26;20000;-76
2024/04/10 09:10:18;;;;;;;1.45;0.40;;;17.10;47.20;;;;;;5382463;26;20427;-76
2024/04/10 09:12:43;;;;;;;0.70;0.50;;;17.10;46.70;;;;;;5379250;26;19996;-77
2024/04/10 09:15:11;;;;;;;0.60;0.40;;;17.30;49.80;;;;;;5357977;26;20042;-77
2024/04/10 09:17:37;;;;;;;1.05;0.40;;;17.80;50.70;;;;;;5378539;26;20432;-77
2024/04/10 09:20:16;;;;;;;0.10;0.00;;;18.00;48.30;;;;;;5373173;26;19992;-76
2024/04/10 09:22:43;;;;;;;2.83;0.35;;;17.80;45.60;;;;;;5367937;26;20020;-77
2024/04/10 09:25:12;;;;;;;1.73;0.35;;;17.70;46.00;;;;;;5378118;26;20008;-77
2024/04/10 09:27:39;;;;;;;1.35;0.30;;;17.60;46.80;;;;;;5378000;26;20004;-77
2024/04/10 09:30:05;;;;;;;0.55;0.10;;;17.60;46.20;;;;;;5360596;26;20008;-77
2024/04/10 09:32:33;;;;;;;0.43;0.10;;;17.70;45.50;;;;;;5381029;26;19992;-77
2024/04/10 09:35:01;;;;;;;1.08;0.10;;;17.80;46.80;;;;;;5380965;26;20465;-77
2024/04/10 09:37:30;;;;;;;0.20;0.20;;;17.90;46.40;;;;;;5376121;26;20003;-77
2024/04/10 09:39:56;;;;;;;1.00;0.28;;;17.90;45.70;;;;;;5364712;26;19997;-77
2024/04/10 09:42:33;;;;;;;0.68;0.10;;;17.90;45.60;;;;;;5374254;26;20010;-77
2024/04/10 09:45:12;;;;;;;0.10;0.00;;;17.90;46.40;;;;;;5368527;26;20345;-76
2024/04/10 09:47:39;;;;;;;1.45;0.32;;;18.00;46.30;;;;;;5378971;26;20004;-75
2024/04/10 09:50:12;;;;;;;0.28;0.17;;;18.20;46.10;;;;;;5378726;26;19999;-77
2024/04/10 09:52:40;;;;;;;0.20;0.20;;;18.30;43.80;;;;;;5373449;26;20000;-77
2024/04/10 09:55:08;;;;;;;0.40;0.30;;;18.40;44.60;;;;;;5379252;26;19992;-77
2024/04/10 09:57:35;;;;;;;2.67;0.38;;;18.70;44.70;;;;;;5380171;26;20024;-76
2024/04/10 10:00:01;;;;;;;0.65;0.40;;;18.80;44.30;;;;;;5381141;26;20007;-75
2024/04/10 10:02:27;;;;;;;1.02;0.57;;;18.70;43.30;;;;;;5379606;26;19996;-77
2024/04/10 10:04:52;;;;;;;0.22;0.22;;;18.30;43.10;;;;;;5373979;26;20457;-76
2024/04/10 10:07:24;;;;;;;2.40;1.33;;;18.10;44.30;;;;;;5363022;26;20012;-75
2024/04/10 10:09:51;;;;;;;1.42;0.25;;;18.00;44.40;;;;;;5364770;26;20044;-77
2024/04/10 10:12:27;;;;;;;1.90;0.40;;;17.90;44.30;;;;;;5409109;26;19997;-77
2024/04/10 10:14:52;;;;;;;2.08;0.20;;;17.70;44.80;;;;;;5380390;26;20004;-77
2024/04/10 10:17:26;;;;;;;0.43;0.10;;;17.40;45.40;;;;;;5379090;26;20086;-77
2024/04/10 10:19:52;;;;;;;0.98;0.20;;;17.30;45.30;;;;;;5359398;26;20065;-78
2024/04/10 10:22:18;;;;;;;0.35;0.20;;;17.30;46.20;;;;;;5382251;26;20008;-79
2024/04/10 10:24:44;;;;;;;0.60;0.15;;;17.30;45.40;;;;;;5381567;26;20003;-78
2024/04/10 10:27:09;;;;;;;2.85;0.10;;;17.40;45.60;;;;;;5381686;26;20442;-78
2024/04/10 10:29:36;;;;;;;0.35;0.20;;;17.30;44.70;;;;;;5381474;26;20007;-78
2024/04/10 10:32:03;;;;;;;0.32;0.30;;;17.10;45.50;;;;;;5380294;26;19997;-78
2024/04/10 10:34:28;;;;;;;0.30;0.30;;;17.20;46.10;;;;;;5380760;26;20406;-79
2024/04/10 10:36:54;;;;;;;1.88;0.10;;;17.50;45.10;;;;;;5382025;26;20007;-78
2024/04/10 10:39:20;;;;;;;1.90;0.20;;;17.70;45.60;;;;;;5381178;26;19989;-78
2024/04/10 10:41:46;;;;;;;1.45;0.43;;;17.70;45.00;;;;;;5380819;26;20000;-77
2024/04/10 10:44:21;;;;;;;1.95;0.55;;;17.50;43.80;;;;;;5369411;26;20037;-78
2024/04/10 10:46:46;;;;;;;0.90;0.55;;;17.40;45.10;;;;;;5380229;26;20089;-76
2024/04/10 10:49:14;;;;;;;2.08;1.10;;;17.40;46.00;;;;;;5378210;26;20450;-77
2024/04/10 10:51:42;;;;;;;1.27;0.93;;;17.30;45.00;;;;;;5372330;26;20081;-77
2024/04/10 10:54:08;;;;;;;0.43;0.43;;;17.20;45.60;;;;;;5368123;26;20012;-77
2024/04/10 10:56:35;;;;;;;0.30;0.30;;;17.10;46.60;;;;;;5375271;26;20458;-77
2024/04/10 10:59:10;;;;;;;0.10;0.10;;;17.20;45.80;;;;;;5377575;26;20462;-77
2024/04/10 11:01:36;;;;;;;0.35;0.30;;;17.10;45.90;;;;;;5377474;26;20042;-77
2024/04/10 11:04:09;;;;;;;0.20;0.20;;;17.10;46.50;;;;;;5379150;26;20249;-77
2024/04/10 11:06:34;;;;;;;2.78;0.45;;;17.20;46.40;;;;;;5379642;26;20008;-77
2024/04/10 11:09:15;;;;;;;0.65;0.22;;;17.30;45.50;;;;;;5369159;26;20083;-77
2024/04/10 11:11:42;;;;;;;0.30;0.20;;;17.30;44.50;;;;;;5371690;26;20474;-77
2024/04/10 11:14:22;;;;;;;0.13;0.10;;;17.30;45.00;;;;;;5371710;26;19996;-77
2024/04/10 11:16:56;;;;;;;1.85;0.32;;;17.60;46.10;;;;;;5381222;26;19996;-75
2024/04/10 11:19:22;;;;;;;0.68;0.40;;;17.90;45.20;;;;;;5382806;26;19996;-77
2024/04/10 11:21:47;;;;;;;0.38;0.20;;;18.00;43.80;;;;;;5382422;26;20011;-76
2024/04/10 11:24:13;;;;;;;0.38;0.20;;;18.10;43.10;;;;;;5380110;26;19997;-77
2024/04/10 11:26:39;;;;;;;0.70;0.10;;;18.10;42.70;;;;;;5381362;26;19997;-76
2024/04/10 11:29:04;;;;;;;1.17;0.10;;;18.20;43.50;;;;;;5382640;26;20465;-78
2024/04/10 11:31:30;;;;;;;0.20;0.20;;;18.10;43.30;;;;;;5378496;26;20015;-76
2024/04/10 11:33:56;;;;;;;2.50;0.20;;;18.00;43.10;;;;;;5381421;26;20490;-76
2024/04/10 11:36:21;;;;;;;0.00;0.00;;;17.90;42.90;;;;;;5380446;26;19996;-77
2024/04/10 11:38:50;;;;;;;0.00;0.00;;;17.90;42.80;;;;;;5380589;26;19997;-76
2024/04/10 11:41:17;;;;;;;0.20;0.20;;;17.90;43.10;;;;;;5368218;26;19997;-77
2024/04/10 11:43:44;;;;;;;0.50;0.40;;;18.20;44.00;;;;;;5377597;26;20055;-77
2024/04/10 11:46:10;;;;;;;1.63;0.30;;;18.50;43.50;;;;;;5379915;26;20015;-76
2024/04/10 11:48:37;;;;;;;1.70;0.20;;;18.60;42.60;;;;;;5382564;26;19996;-76
2024/04/10 11:51:03;;;;;;;2.65;0.10;;;18.50;41.20;;;;;;5380273;26;20036;-75
2024/04/10 11:53:30;;;;;;;1.02;0.40;;;18.50;42.10;;;;;;5379249;26;20015;-76
2024/04/10 11:55:56;;;;;;;0.88;0.20;;;18.50;42.00;;;;;;5380056;26;19992;-76
2024/04/10 11:58:22;;;;;;;0.30;0.28;;;18.40;42.10;;;;;;5382222;26;20326;-76
2024/04/10 12:00:47;;;;;;;9.95;1.08;;;18.50;42.60;;;;;;5379919;26;20338;-76
2024/04/10 12:03:13;;;;;;;0.05;0.05;;;18.60;41.70;;;;;;5381016;26;20011;-76
2024/04/10 12:05:38;;;;;;;0.98;0.08;;;18.60;42.10;;;;;;5382180;26;20008;-77
2024/04/10 12:08:04;;;;;;;0.75;0.10;;;18.60;41.60;;;;;;5380300;26;20011;-76
2024/04/10 12:10:31;;;;;;;0.47;0.20;;;18.70;42.20;;;;;;5381996;26;20434;-76
2024/04/10 12:12:58;;;;;;;1.90;0.40;;;18.70;41.80;;;;;;5379989;26;19996;-76
2024/04/10 12:15:24;;;;;;;0.68;0.13;;;18.80;41.90;;;;;;5380431;26;20011;-77
2024/04/10 12:17:51;;;;;;;9.95;0.30;;;18.70;42.00;;;;;;5379618;26;19999;-77
2024/04/10 12:20:17;;;;;;;1.02;0.32;;;18.80;41.60;;;;;;5381685;26;20008;-77
2024/04/10 12:22:42;;;;;;;1.55;0.20;;;18.80;41.60;;;;;;5380047;26;20007;-77
2024/04/10 12:25:09;;;;;;;0.13;0.10;;;18.80;41.30;;;;;;5379251;26;20001;-77
2024/04/10 12:27:34;;;;;;;1.65;0.10;;;18.90;41.40;;;;;;5381973;26;19996;-77
2024/04/10 12:30:00;;;;;;;0.35;0.13;;;18.70;39.90;;;;;;5381797;26;20007;-78
2024/04/10 12:32:25;;;;;;;4.65;0.40;;;18.70;41.70;;;;;;5380812;26;20136;-76
2024/04/10 12:34:57;;;;;;;0.20;0.20;;;18.80;42.10;;;;;;5381665;26;20008;-77
2024/04/10 12:38:25;;;;;;;0.28;0.10;;;19.00;41.80;;;;;;5382490;26;20011;-77
2024/04/10 12:40:19;;;;;;;0.20;0.20;;;19.00;41.70;;;;;;5373654;26;20451;-78
2024/04/10 12:42:44;;;;;;;0.35;0.20;;;19.00;41.20;;;;;;5382146;26;20061;-77
2024/04/10 12:45:10;;;;;;;1.45;0.45;;;19.00;40.40;;;;;;5379108;26;20000;-77